Conover, North Carolina
Current Conditions -  °F | °C
As of 1:53 AM on Monday 24 Nov 2014 (Local Time) from KHKY Reporting Station
Overcast Overcast  
Wind Chill: 56°   Ceiling: 800
Heat Index: 56°   Visibility: 10mi
Dew Point: 54°   Wind: 12mph
Humidity: 93%   Direction: 200°SSW
Pressure: 29.7"   Gusts: 18mph
Location:  35.71°N, 81.22°W
Report Text: KHKY 240653Z AUTO 20010G16KT 10SM BKN008 OVC015 13/12 A2970 RMK AO2 CIG 006V010 SLP047 T01330122
Loading
Personal Weather Stations






























Interactive Weather Map New forecast layout! Learn more

10-Day Weather Forecast

Advertisements
Track Severe Weather on mobile